BGTL

Thule Air Base Airport

Qaanaaq, , Greenland
METAR BGTL 201456Z AUTO 00000KT 9999 FEW060 M14/M19 A2957 RMK AO2 SLP004 T11451193 52020 TSNO $
Observed Flight Rules
Feb-20 @ 14:56 UTC (5 hours ago) Visual Flight Rules
Wind Visibility Clouds
Calm 10,000+ meters
  • Few at 6,000' AGL
Temperatures Readings
Current -15°C / 5°F
Dewpoint -19°C / -2°F
Humidity 72%
Altimeter 29.57" Hg
Pressure 1000.4 hPa
Elevation 77
METAR BGTL 201456Z AUTO 00000KT 9999 FEW060 M14/M19 A2957 RMK AO2 SLP004 T11451193 52020 TSNO $
Observed Flight Rules
Feb-20 @ 14:56 UTC
(5 hours ago)
VFR
Wind Visibility
Calm 10,000+ meters
Clouds
  • Few at 6,000' AGL
Temperature Dewpoint
-15°C / 5°F -19°C / -2°F
Humidity Altimeter Pressure
72% 29.57" Hg 1000.4 hPa